This is the latest recevied weather packets stored in our database for station/object IU1CYJ. If no packets are shown the sender has not sent any weather packets the latest 10 day(s).
| Time | Temp. | Humidity | Pressure | Rain* | Wind** | Luminosity | Snow |
|---|---|---|---|---|---|---|---|
| 1777472162 | 20.56° C | 62% | 1016.1 hPa | 0 mm | - | - | - |
| 1777470357 | 20.56° C | 63% | 1016.5 hPa | 0 mm | - | - | - |
| 1777469460 | 20° C | 62% | 1016.6 hPa | 0 mm | - | - | - |
| 1777468559 | 20° C | 64% | 1016.6 hPa | 0 mm | - | - | - |
| 1777462256 | 18.89° C | 65% | 1017.7 hPa | 0 mm | - | - | - |
| 1777454155 | 17.22° C | 73% | 1018 hPa | 0 mm | - | - | - |
| 1777452360 | 16.67° C | 74% | 1017.8 hPa | 0 mm | - | - | - |
| 1777450561 | 16.67° C | 80% | 1017.8 hPa | 0 mm | - | - | - |
| 1777446957 | 16.11° C | 83% | 1017.7 hPa | 0 mm | - | - | - |
| 1777443358 | 15.56° C | 84% | 1017.3 hPa | 0 mm | - | - | - |
| 1777438857 | 15.56° C | 87% | 1016.9 hPa | 0 mm | - | - | - |
| 1777437962 | 15.56° C | 88% | 1016.8 hPa | 0 mm | - | - | - |
| 1777436154 | 15.56° C | 87% | 1016.6 hPa | 0 mm | - | - | - |
| 1777425354 | 15.56° C | 84% | 1016.2 hPa | 0 mm | - | - | - |
| 1777419063 | 15.56° C | 88% | 1016.3 hPa | 0 mm | - | - | - |
| 1777417258 | 15.56° C | 88% | 1016.1 hPa | 0 mm | - | - | - |
| 1777414559 | 15.56° C | 88% | 1015.9 hPa | 0 mm | - | - | - |
| 1777413659 | 15.56° C | 88% | 1015.9 hPa | 0 mm | - | - | - |
| 1777407369 | 16.11° C | 89% | 1015.7 hPa | 0 mm | - | - | - |
| 1777405560 | 16.11° C | 90% | 1015.6 hPa | 0.51 mm | - | - | - |
| 1777399259 | 18.89° C | 80% | 1014.7 hPa | 0 mm | - | - | - |
| 1777398356 | 19.44° C | 72% | 1014.5 hPa | 0 mm | - | - | - |
| 1777397467 | 19.44° C | 68% | 1014.2 hPa | 0 mm | - | - | - |
| 1777396555 | 20° C | 64% | 1014.2 hPa | 0 mm | - | - | - |
| 1777395657 | 20° C | 64% | 1014.2 hPa | 0 mm | - | - | - |
* Rain latest hour (hover to see other rain measurements)
** Current wind speed in m/s (hover to see current wind gust speed)